createdAt,value
2023-02-11T00:02:47.808Z,33.53
2023-02-11T00:07:53.575Z,32.13
2023-02-11T00:12:58.536Z,30.58
2023-02-11T00:18:02.646Z,31.90
2023-02-11T00:23:08.454Z,31.77
2023-02-11T00:28:13.733Z,29.55
2023-02-11T00:33:18.293Z,30.85
2023-02-11T00:38:24.061Z,32.90
2023-02-11T00:43:28.680Z,30.38
2023-02-11T00:48:33.379Z,30.52
2023-02-11T00:53:39.686Z,29.40
2023-02-11T00:58:44.776Z,29.63
2023-02-11T01:03:49.475Z,28.52
2023-02-11T01:08:55.031Z,30.23
2023-02-11T01:13:59.440Z,28.20
2023-02-11T01:19:05.483Z,27.42
2023-02-11T01:24:11.162Z,28.27
2023-02-11T01:29:15.553Z,28.73
2023-02-11T01:34:19.927Z,28.67
2023-02-11T01:39:25.481Z,28.58
2023-02-11T01:44:33.079Z,28.00
2023-02-11T01:49:40.688Z,27.88
2023-02-11T01:55:09.324Z,28.85
2023-02-11T02:00:20.390Z,28.42
2023-02-11T02:05:33.565Z,28.15
2023-02-11T02:10:44.149Z,28.27
2023-02-11T02:15:53.034Z,27.52
2023-02-11T02:21:36.002Z,29.55
2023-02-11T02:32:44.429Z,28.38
2023-02-11T02:37:56.538Z,29.00
2023-02-11T02:43:03.071Z,29.85
2023-02-11T02:48:08.778Z,29.80
2023-02-11T02:53:28.152Z,30.35
2023-02-11T02:58:55.583Z,28.80
2023-02-11T03:04:11.115Z,30.55
2023-02-11T03:09:23.298Z,33.13
2023-02-11T03:14:30.508Z,29.88
2023-02-11T03:19:39.450Z,30.13
2023-02-11T03:24:44.526Z,30.80
2023-02-11T03:29:56.978Z,29.45
2023-02-11T03:35:09.294Z,30.13
2023-02-11T03:40:20.198Z,29.25
2023-02-11T03:45:26.822Z,30.45
2023-02-11T03:50:36.187Z,28.42
2023-02-11T03:55:43.520Z,28.88
2023-02-11T04:00:47.967Z,26.48
2023-02-11T04:05:54.374Z,28.27
2023-02-11T04:10:58.751Z,27.17
2023-02-11T04:16:03.055Z,24.23
2023-02-11T04:21:10.865Z,27.20
2023-02-11T04:26:15.232Z,28.38
2023-02-11T04:31:19.662Z,28.10
2023-02-11T04:41:30.346Z,27.48
2023-02-11T04:46:35.186Z,28.58
2023-02-11T04:51:41.408Z,28.95
2023-02-11T04:56:46.144Z,26.85
2023-02-11T05:01:50.695Z,27.67
2023-02-11T05:06:58.610Z,25.50
2023-02-11T05:12:03.119Z,27.13
2023-02-11T05:17:07.635Z,25.98
2023-02-11T05:27:17.493Z,26.77
2023-02-11T05:32:21.708Z,26.02
2023-02-11T05:37:27.365Z,26.00
2023-02-11T05:42:32.431Z,27.95
2023-02-11T05:47:36.570Z,27.75
2023-02-11T05:52:42.452Z,27.92
2023-02-11T05:57:46.750Z,26.60
2023-02-11T06:02:50.997Z,26.63
2023-02-11T06:13:00.813Z,27.83
2023-02-11T06:18:05.850Z,29.52
2023-02-11T06:23:11.732Z,29.40
2023-02-11T06:28:15.897Z,31.55
2023-02-11T06:33:20.266Z,30.73
2023-02-11T06:38:26.000Z,30.67
2023-02-11T06:43:30.172Z,29.98
2023-02-11T06:48:34.799Z,30.25
2023-02-11T06:53:43.688Z,30.85
2023-02-11T06:58:49.034Z,30.20
2023-02-11T07:03:53.663Z,27.63
2023-02-11T07:08:59.368Z,27.80
2023-02-11T07:14:08.351Z,27.52
2023-02-11T07:19:12.763Z,27.23
2023-02-11T07:24:18.418Z,27.42
2023-02-11T07:29:22.822Z,28.52
2023-02-11T07:34:27.226Z,27.45
2023-02-11T07:39:33.678Z,26.98
2023-02-11T07:44:38.610Z,27.20
2023-02-11T07:54:50.073Z,26.75
2023-02-11T07:59:54.960Z,25.52
2023-02-11T08:10:05.835Z,26.00
2023-02-11T08:15:11.014Z,25.73
2023-02-11T08:20:15.623Z,27.98
2023-02-11T08:30:27.422Z,26.95
2023-02-11T08:35:33.134Z,24.60
2023-02-11T08:40:38.680Z,25.48
2023-02-11T08:45:42.892Z,25.17
2023-02-11T08:50:47.228Z,24.50
2023-02-11T08:55:55.573Z,25.63
2023-02-11T09:01:00.479Z,25.30
2023-02-11T09:06:07.702Z,24.00
2023-02-11T09:11:14.510Z,25.10
2023-02-11T09:16:21.440Z,23.63
2023-02-11T09:21:26.083Z,21.98
2023-02-11T09:26:34.120Z,22.80
2023-02-11T09:31:38.672Z,21.73
2023-02-11T09:36:43.837Z,24.92
2023-02-11T09:42:32.535Z,24.83
2023-02-11T09:47:46.822Z,22.48
2023-02-11T09:52:58.447Z,23.10
2023-02-11T09:58:08.624Z,24.52
2023-02-11T10:03:44.839Z,25.30
2023-02-11T10:09:02.315Z,26.42
2023-02-11T10:14:26.856Z,24.85
2023-02-11T10:19:52.588Z,23.25
2023-02-11T10:25:00.305Z,22.83
2023-02-11T10:30:13.793Z,24.08
2023-02-11T10:35:22.167Z,26.75
2023-02-11T10:40:29.523Z,25.95
2023-02-11T10:45:39.976Z,24.52
2023-02-11T10:50:44.237Z,26.13
2023-02-11T10:55:54.016Z,25.38
2023-02-11T11:01:01.485Z,23.73
2023-02-11T11:06:09.370Z,26.40
2023-02-11T11:11:17.273Z,25.02
2023-02-11T11:16:27.276Z,24.65
2023-02-11T11:21:36.483Z,25.42
2023-02-11T11:26:44.523Z,24.20
2023-02-11T11:31:55.219Z,26.77
2023-02-11T11:37:01.166Z,26.05
2023-02-11T11:42:23.168Z,26.77
2023-02-11T11:47:37.193Z,26.02
2023-02-11T11:52:47.871Z,28.60
2023-02-11T11:57:52.495Z,27.55
2023-02-11T12:03:39.008Z,29.63
2023-02-11T12:08:58.302Z,28.27
2023-02-11T12:14:15.586Z,30.42
2023-02-11T12:20:00.377Z,29.02
2023-02-11T12:25:27.068Z,29.25
2023-02-11T12:30:58.217Z,28.60
2023-02-11T12:36:13.944Z,28.67
2023-02-11T12:41:51.267Z,29.40
2023-02-11T12:47:04.036Z,29.33
2023-02-11T12:52:38.944Z,29.45
2023-02-11T12:57:44.609Z,28.58
2023-02-11T13:02:56.022Z,30.27
2023-02-11T13:08:08.462Z,29.92
2023-02-11T13:13:20.710Z,28.25
2023-02-11T13:18:49.619Z,30.33
2023-02-11T13:24:05.480Z,29.67
2023-02-11T13:29:30.202Z,26.50
2023-02-11T13:34:58.164Z,28.20
2023-02-11T13:40:21.491Z,27.52
2023-02-11T13:45:33.239Z,26.27
2023-02-11T13:50:47.918Z,27.35
2023-02-11T13:56:06.180Z,28.13
2023-02-11T14:01:11.194Z,28.40
2023-02-11T14:11:55.432Z,28.90
2023-02-11T14:17:38.127Z,30.55
2023-02-11T14:22:49.620Z,28.75
2023-02-11T14:28:00.052Z,28.65
2023-02-11T14:33:41.286Z,28.70
2023-02-11T14:39:01.577Z,28.02
2023-02-11T14:44:14.678Z,27.52
2023-02-11T14:49:27.520Z,26.95
2023-02-11T14:54:33.568Z,24.83
2023-02-11T14:59:39.628Z,25.65
2023-02-11T15:04:44.225Z,25.63
2023-02-11T15:09:52.418Z,25.45
2023-02-11T15:15:01.436Z,27.98
2023-02-11T15:20:07.278Z,26.05
2023-02-11T15:25:16.742Z,30.60
2023-02-11T15:30:34.022Z,27.52
2023-02-11T15:35:41.141Z,29.30
2023-02-11T15:40:56.526Z,25.05
2023-02-11T15:46:04.021Z,25.75
2023-02-11T15:51:20.895Z,26.85
2023-02-11T15:56:30.693Z,25.25
2023-02-11T16:01:40.079Z,25.17
2023-02-11T16:06:47.738Z,25.73
2023-02-11T16:11:59.168Z,25.55
2023-02-11T16:17:08.571Z,24.67
2023-02-11T16:22:18.512Z,27.42
2023-02-11T16:27:28.518Z,27.15
2023-02-11T16:32:34.044Z,26.17
2023-02-11T16:37:39.314Z,25.52
2023-02-11T16:42:43.566Z,24.73
2023-02-11T16:47:49.503Z,25.33
2023-02-11T16:52:55.148Z,22.90
2023-02-11T16:57:59.733Z,22.65
2023-02-11T17:03:07.850Z,21.92
2023-02-11T17:08:13.226Z,22.90
2023-02-11T17:18:23.067Z,20.80
2023-02-11T17:23:27.712Z,22.00
2023-02-11T17:28:32.470Z,20.42
2023-02-11T17:33:38.883Z,20.10
2023-02-11T17:38:43.533Z,20.05
2023-02-11T17:43:47.973Z,18.02
2023-02-11T17:48:54.060Z,18.85
2023-02-11T17:54:00.278Z,18.73
2023-02-11T17:59:05.944Z,16.23
2023-02-11T18:04:17.380Z,14.10
2023-02-11T18:09:22.345Z,16.55
2023-02-11T18:14:26.808Z,17.85
2023-02-11T18:19:35.198Z,16.88
2023-02-11T18:24:39.692Z,17.50
2023-02-11T18:29:44.110Z,16.85
2023-02-11T18:34:49.674Z,16.70
2023-02-11T18:39:54.007Z,34.42
2023-02-11T18:44:58.508Z,22.27
2023-02-11T18:50:05.067Z,17.20
2023-02-11T18:55:10.519Z,20.98
2023-02-11T19:00:16.799Z,15.60
2023-02-11T19:05:22.641Z,15.23
2023-02-11T19:10:28.522Z,16.17
2023-02-11T19:15:32.848Z,19.48
2023-02-11T19:20:40.860Z,17.33
2023-02-11T19:25:49.251Z,16.17
2023-02-11T19:30:53.724Z,16.95
2023-02-11T19:36:06.778Z,17.52
2023-02-11T19:41:11.660Z,20.85
2023-02-11T19:51:22.808Z,18.13
2023-02-11T19:56:28.774Z,17.70
2023-02-11T20:01:33.098Z,13.25
2023-02-11T20:06:39.001Z,13.60
2023-02-11T20:11:44.086Z,17.15
2023-02-11T20:16:50.015Z,14.70
2023-02-11T20:21:56.542Z,14.25
2023-02-11T20:27:01.085Z,13.98
2023-02-11T20:32:06.812Z,12.98
2023-02-11T20:37:12.754Z,22.63
2023-02-11T20:42:17.374Z,15.73
2023-02-11T20:47:22.725Z,19.20
2023-02-11T20:52:28.751Z,16.70
2023-02-11T20:57:35.126Z,16.02
2023-02-11T21:02:40.167Z,15.45
2023-02-11T21:12:50.595Z,16.77
2023-02-11T21:17:55.374Z,16.85
2023-02-11T21:23:00.901Z,15.98
2023-02-11T21:28:05.552Z,20.65
2023-02-11T21:33:09.781Z,18.83
2023-02-11T21:38:15.759Z,14.27
2023-02-11T21:43:20.979Z,19.42
2023-02-11T21:48:26.834Z,13.68
2023-02-11T21:53:32.602Z,15.15
2023-02-11T21:58:37.204Z,15.32
2023-02-11T22:03:41.612Z,14.75
2023-02-11T22:08:47.123Z,11.63
2023-02-11T22:13:56.312Z,13.18
2023-02-11T22:19:02.376Z,13.77
2023-02-11T22:24:08.645Z,14.15
2023-02-11T22:29:13.293Z,13.98
2023-02-11T22:34:17.570Z,14.43
2023-02-11T22:39:23.584Z,14.38
2023-02-11T22:44:28.218Z,15.43
2023-02-11T22:49:33.282Z,16.50
2023-02-11T22:54:39.267Z,15.98
2023-02-11T22:59:43.401Z,15.35
2023-02-11T23:04:49.896Z,16.80
2023-02-11T23:09:56.046Z,16.67
2023-02-11T23:15:02.103Z,17.85
2023-02-11T23:20:09.313Z,18.83
2023-02-11T23:25:15.186Z,20.88
2023-02-11T23:30:20.759Z,18.63
2023-02-11T23:35:25.191Z,21.17
2023-02-11T23:40:30.808Z,22.10
2023-02-11T23:45:35.321Z,20.33
2023-02-11T23:50:43.909Z,20.00
2023-02-11T23:55:49.898Z,20.90
